Time;durP1;ratioP1;P1;durP2;ratioP2;P2;SDS_P1;SDS_P2;PMS_P1;PMS_P2;Temp;Humidity;BMP_temperature;BMP_pressure;BME280_temperature;BME280_humidity;BME280_pressure;Samples;Min_cycle;Max_cycle;Signal;HPM_P1;HPM_P2
2023/03/08 00:01:41;;;;;;;;;;;;;;;3.83;70.43;94861.34;109044;1267;22553;-83
2023/03/08 00:04:11;;;;;;;;;;;;;;;3.85;70.47;94865.15;109060;1274;34875;-83
2023/03/08 00:06:42;;;;;;;;;;;;;;;3.78;70.81;94859.13;109076;1267;22488;-83
2023/03/08 00:09:11;;;;;;;;;;;;;;;3.69;70.94;94854.19;109086;1273;22614;-83
2023/03/08 00:11:40;;;;;;;;;;;;;;;3.70;71.13;94851.09;109084;1274;22611;-83
2023/03/08 00:14:10;;;;;;;;;;;;;;;3.67;71.14;94851.38;109041;1274;55797;-83
2023/03/08 00:16:39;;;;;;;;;;;;;;;3.63;71.75;94851.77;109079;1273;22479;-83
2023/03/08 00:19:09;;;;;;;;;;;;;;;3.54;72.41;94847.41;109064;1274;22515;-83
2023/03/08 00:21:38;;;;;;;;;;;;;;;3.46;72.85;94857.55;109081;1267;22499;-83
2023/03/08 00:24:08;;;;;;;;;;;;;;;3.42;73.01;94851.88;109069;1267;22904;-83
2023/03/08 00:26:37;;;;;;;;;;;;;;;3.39;73.46;94847.30;109067;1273;22442;-83
2023/03/08 00:29:06;;;;;;;;;;;;;;;3.38;73.75;94851.70;109073;1266;22529;-83
2023/03/08 00:31:37;;;;;;;;;;;;;;;3.37;73.83;94844.77;109011;1273;22506;-83
2023/03/08 00:34:06;;;;;;;;;;;;;;;3.38;73.91;94841.22;109046;1266;22489;-83
2023/03/08 00:36:35;;;;;;;;;;;;;;;3.40;74.03;94845.52;109054;1268;22524;-83
2023/03/08 00:39:04;;;;;;;;;;;;;;;3.46;73.69;94842.02;109095;1273;22490;-82
2023/03/08 00:41:34;;;;;;;;;;;;;;;3.55;73.25;94842.80;109059;1267;22508;-82
2023/03/08 00:44:03;;;;;;;;;;;;;;;3.59;73.02;94847.06;109066;1273;23837;-83
2023/03/08 00:46:33;;;;;;;;;;;;;;;3.64;72.83;94857.80;109041;1273;22520;-83
2023/03/08 00:49:03;;;;;;;;;;;;;;;3.68;72.53;94851.11;109100;1273;22439;-83
2023/03/08 00:51:33;;;;;;;;;;;;;;;3.70;72.50;94848.00;109080;1273;22495;-82
2023/03/08 00:54:04;;;;;;;;;;;;;;;3.71;72.32;94849.56;109050;1273;22501;-83
2023/03/08 00:56:34;;;;;;;;;;;;;;;3.72;72.17;94854.11;109082;1273;22525;-82
2023/03/08 00:59:03;;;;;;;;;;;;;;;3.72;72.13;94851.84;109099;1273;22600;-82
2023/03/08 01:01:32;;;;;;;;;;;;;;;3.73;72.00;94848.17;109104;1273;22517;-83
2023/03/08 01:04:03;;;;;;;;;;;;;;;3.71;71.83;94842.11;109034;1273;22832;-82
2023/03/08 01:06:32;;;;;;;;;;;;;;;3.70;71.82;94846.69;109044;1273;22512;-82
2023/03/08 01:09:02;;;;;;;;;;;;;;;3.68;71.78;94846.98;109124;1267;22489;-82
2023/03/08 01:11:34;;;;;;;;;;;;;;;3.68;71.77;94847.39;109096;1273;22478;-82
2023/03/08 01:14:04;;;;;;;;;;;;;;;3.70;71.56;94854.13;109051;1269;25431;-82
2023/03/08 01:16:33;;;;;;;;;;;;;;;3.70;71.51;94845.70;109055;1267;22596;-82
2023/03/08 01:19:04;;;;;;;;;;;;;;;3.70;71.32;94843.65;109077;1273;22496;-82
2023/03/08 01:21:34;;;;;;;;;;;;;;;3.72;71.13;94844.00;109076;1273;22468;-82
2023/03/08 01:24:03;;;;;;;;;;;;;;;3.75;71.00;94839.28;109112;1272;22931;-82
2023/03/08 01:26:33;;;;;;;;;;;;;;;3.78;70.84;94845.75;109068;1273;22903;-82
2023/03/08 01:29:02;;;;;;;;;;;;;;;3.80;70.62;94850.67;109070;1267;22512;-82
2023/03/08 01:31:31;;;;;;;;;;;;;;;3.82;70.65;94854.06;109075;1269;23954;-82
2023/03/08 01:34:00;;;;;;;;;;;;;;;3.84;70.51;94853.25;109015;1273;22518;-82
2023/03/08 01:36:30;;;;;;;;;;;;;;;3.86;70.36;94842.95;109070;1273;22655;-83
2023/03/08 01:39:03;;;;;;;;;;;;;;;3.85;70.28;94840.29;109075;1267;24315;-82
2023/03/08 01:41:32;;;;;;;;;;;;;;;3.83;70.11;94849.38;109041;1273;22489;-82
2023/03/08 01:44:01;;;;;;;;;;;;;;;3.78;70.35;94849.42;108971;1273;73204;-82
2023/03/08 01:46:32;;;;;;;;;;;;;;;3.71;70.45;94837.23;109093;1263;22429;-82
2023/03/08 01:49:05;;;;;;;;;;;;;;;3.70;70.57;94845.60;109061;1267;25407;-83
2023/03/08 01:51:37;;;;;;;;;;;;;;;3.67;70.33;94845.73;109047;1272;22497;-82
2023/03/08 01:54:10;;;;;;;;;;;;;;;3.71;70.03;94846.94;109028;1274;22517;-82
2023/03/08 01:56:40;;;;;;;;;;;;;;;3.75;69.62;94844.33;109073;1267;22549;-83
2023/03/08 01:59:10;;;;;;;;;;;;;;;3.76;69.44;94841.16;109058;1267;22426;-82
2023/03/08 02:01:40;;;;;;;;;;;;;;;3.74;68.97;94838.56;109079;1273;22447;-82
2023/03/08 02:04:10;;;;;;;;;;;;;;;3.79;68.09;94837.27;109037;1268;59755;-83
2023/03/08 02:06:40;;;;;;;;;;;;;;;3.80;67.99;94832.47;109056;1266;23718;-81
2023/03/08 02:09:10;;;;;;;;;;;;;;;3.76;68.30;94831.93;109129;1273;22467;-82
2023/03/08 02:11:40;;;;;;;;;;;;;;;3.71;68.30;94831.27;109072;1266;23650;-81
2023/03/08 02:14:09;;;;;;;;;;;;;;;3.69;68.26;94835.33;109046;1273;22489;-82
2023/03/08 02:16:39;;;;;;;;;;;;;;;3.68;68.10;94842.42;109098;1273;22497;-81
2023/03/08 02:19:13;;;;;;;;;;;;;;;3.68;67.66;94843.98;109040;1273;23268;-83
2023/03/08 02:21:43;;;;;;;;;;;;;;;3.67;67.76;94849.09;109083;1270;24205;-82
2023/03/08 02:24:19;;;;;;;;;;;;;;;3.63;67.61;94844.61;109052;1267;22492;-82
2023/03/08 02:26:50;;;;;;;;;;;;;;;3.64;66.85;94848.36;109081;1273;22492;-83
2023/03/08 02:29:19;;;;;;;;;;;;;;;3.70;65.99;94845.95;109060;1273;22503;-82
2023/03/08 02:31:48;;;;;;;;;;;;;;;3.70;65.77;94846.21;109102;1273;22485;-82
2023/03/08 02:34:17;;;;;;;;;;;;;;;3.70;65.16;94835.58;109008;1273;41198;-82
2023/03/08 02:36:47;;;;;;;;;;;;;;;3.70;64.72;94841.96;109069;1273;22493;-82
2023/03/08 02:39:16;;;;;;;;;;;;;;;3.74;64.10;94841.88;109116;1273;25326;-81
2023/03/08 02:41:45;;;;;;;;;;;;;;;3.74;63.77;94836.73;109123;1267;24231;-82
2023/03/08 02:44:15;;;;;;;;;;;;;;;3.71;63.59;94834.83;109046;1267;22567;-83
2023/03/08 02:46:44;;;;;;;;;;;;;;;3.70;63.22;94837.98;109085;1273;22491;-83
2023/03/08 02:49:13;;;;;;;;;;;;;;;3.69;63.05;94838.52;109094;1273;22495;-84
2023/03/08 02:51:43;;;;;;;;;;;;;;;3.68;62.77;94837.54;109042;1273;22498;-82
2023/03/08 02:54:12;;;;;;;;;;;;;;;3.70;62.46;94846.59;109015;1273;32807;-83
2023/03/08 02:56:41;;;;;;;;;;;;;;;3.71;61.91;94837.66;109053;1270;22499;-82
2023/03/08 02:59:11;;;;;;;;;;;;;;;3.72;61.91;94840.52;109092;1273;22953;-82
2023/03/08 03:01:40;;;;;;;;;;;;;;;3.73;61.95;94850.27;109115;1273;22488;-82
2023/03/08 03:04:09;;;;;;;;;;;;;;;3.70;61.99;94845.11;109054;1273;22609;-82
2023/03/08 03:06:38;;;;;;;;;;;;;;;3.68;62.21;94845.66;108958;1273;159683;-82
2023/03/08 03:09:08;;;;;;;;;;;;;;;3.63;62.22;94858.27;109107;1269;22523;-82
2023/03/08 03:11:39;;;;;;;;;;;;;;;3.63;62.39;94860.11;109080;1273;22535;-82
2023/03/08 03:14:09;;;;;;;;;;;;;;;3.60;62.43;94854.17;109041;1273;22596;-82
2023/03/08 03:16:38;;;;;;;;;;;;;;;3.57;62.54;94856.40;109092;1267;22537;-82
2023/03/08 03:19:07;;;;;;;;;;;;;;;3.53;62.56;94849.36;109017;1273;22501;-83
2023/03/08 03:21:38;;;;;;;;;;;;;;;3.51;62.57;94846.71;109025;1273;22430;-83
2023/03/08 03:24:08;;;;;;;;;;;;;;;3.51;62.71;94857.70;109082;1259;22641;-83
2023/03/08 03:26:37;;;;;;;;;;;;;;;3.48;62.83;94849.19;109068;1273;22495;-83
2023/03/08 03:29:07;;;;;;;;;;;;;;;3.48;62.75;94853.64;109063;1272;22455;-82
2023/03/08 03:31:36;;;;;;;;;;;;;;;3.50;62.56;94856.34;109082;1273;26215;-83
2023/03/08 03:34:05;;;;;;;;;;;;;;;3.48;62.76;94866.06;109065;1273;22530;-83
2023/03/08 03:36:35;;;;;;;;;;;;;;;3.41;62.95;94860.69;109040;1273;22880;-82
2023/03/08 03:39:04;;;;;;;;;;;;;;;3.33;63.13;94863.84;109081;1269;22488;-82
2023/03/08 03:41:33;;;;;;;;;;;;;;;3.29;63.27;94865.66;109094;1273;22654;-84
2023/03/08 03:44:03;;;;;;;;;;;;;;;3.23;63.45;94873.29;109027;1274;25398;-82
2023/03/08 03:46:32;;;;;;;;;;;;;;;3.21;63.48;94875.81;109080;1268;22465;-83
2023/03/08 03:49:01;;;;;;;;;;;;;;;3.21;63.44;94882.20;109042;1273;22496;-82
2023/03/08 03:51:31;;;;;;;;;;;;;;;3.19;63.45;94882.06;109057;1273;23219;-82
2023/03/08 03:54:01;;;;;;;;;;;;;;;3.14;63.53;94891.65;109075;1273;22454;-83
2023/03/08 03:56:30;;;;;;;;;;;;;;;3.11;63.56;94888.75;109106;1273;22512;-83
2023/03/08 03:59:00;;;;;;;;;;;;;;;3.08;63.53;94902.56;109048;1273;22498;-82
2023/03/08 04:01:31;;;;;;;;;;;;;;;3.07;63.57;94901.20;109088;1273;22572;-83
2023/03/08 04:04:00;;;;;;;;;;;;;;;3.06;63.39;94908.19;109064;1273;22505;-83
2023/03/08 04:06:30;;;;;;;;;;;;;;;3.10;63.15;94907.75;109045;1270;22490;-82
2023/03/08 04:09:01;;;;;;;;;;;;;;;3.12;63.00;94925.13;109046;1261;22627;-83
2023/03/08 04:11:32;;;;;;;;;;;;;;;3.07;63.06;94921.21;109096;1267;22534;-83
2023/03/08 04:14:02;;;;;;;;;;;;;;;3.03;63.08;94923.02;109051;1273;30612;-83
2023/03/08 04:16:32;;;;;;;;;;;;;;;3.00;63.06;94928.08;109086;1266;22831;-83
2023/03/08 04:19:04;;;;;;;;;;;;;;;2.95;63.06;94925.36;109076;1273;23832;-82
2023/03/08 04:21:33;;;;;;;;;;;;;;;2.92;63.11;94929.63;109058;1273;22522;-83
2023/03/08 04:24:03;;;;;;;;;;;;;;;2.86;63.23;94929.15;109002;1273;40103;-82
2023/03/08 04:26:33;;;;;;;;;;;;;;;2.79;63.31;94921.27;109058;1268;24785;-82
2023/03/08 04:29:04;;;;;;;;;;;;;;;2.82;63.23;94936.66;109087;1273;22549;-83
2023/03/08 04:31:35;;;;;;;;;;;;;;;2.79;63.28;94938.17;109059;1273;22520;-82
2023/03/08 04:34:07;;;;;;;;;;;;;;;2.76;63.33;94937.15;109067;1273;22499;-83
2023/03/08 04:36:37;;;;;;;;;;;;;;;2.73;63.43;94939.00;109056;1273;22826;-83
2023/03/08 04:39:06;;;;;;;;;;;;;;;2.75;63.40;94946.73;109037;1269;22553;-83
2023/03/08 04:41:36;;;;;;;;;;;;;;;2.75;63.48;94949.09;109102;1273;23122;-83
2023/03/08 04:44:05;;;;;;;;;;;;;;;2.72;63.63;94967.27;109021;1269;24241;-83
2023/03/08 04:46:34;;;;;;;;;;;;;;;2.63;63.86;94978.17;109053;1273;25393;-82
2023/03/08 04:49:04;;;;;;;;;;;;;;;2.59;63.99;94980.45;109078;1273;24180;-83
2023/03/08 04:51:33;;;;;;;;;;;;;;;2.68;63.97;94971.67;109062;1273;22485;-83
2023/03/08 04:54:04;;;;;;;;;;;;;;;2.73;63.89;94975.73;109062;1273;24211;-83
2023/03/08 04:56:33;;;;;;;;;;;;;;;2.73;63.95;94979.71;109105;1273;22514;-83
2023/03/08 04:59:02;;;;;;;;;;;;;;;2.72;63.92;94987.83;109076;1273;22501;-85
2023/03/08 05:01:32;;;;;;;;;;;;;;;2.73;64.21;94990.50;109105;1273;22495;-83
2023/03/08 05:04:02;;;;;;;;;;;;;;;2.76;64.20;94991.77;109019;1273;33319;-83
2023/03/08 05:06:31;;;;;;;;;;;;;;;2.84;63.96;94995.16;109070;1268;24211;-83
2023/03/08 05:09:00;;;;;;;;;;;;;;;2.90;63.65;95000.98;109023;1273;25274;-83
2023/03/08 05:11:30;;;;;;;;;;;;;;;2.91;63.51;94997.58;109079;1266;22498;-83
2023/03/08 05:13:59;;;;;;;;;;;;;;;2.96;62.84;95003.27;109072;1269;26657;-84
2023/03/08 05:16:29;;;;;;;;;;;;;;;3.03;62.72;95002.91;109095;1273;22494;-84
2023/03/08 05:18:58;;;;;;;;;;;;;;;3.02;62.70;95012.82;109068;1273;22643;-84
2023/03/08 05:21:28;;;;;;;;;;;;;;;2.96;62.65;95015.57;109077;1273;24296;-83
2023/03/08 05:23:58;;;;;;;;;;;;;;;2.97;62.61;95024.68;109069;1270;22499;-83
2023/03/08 05:26:28;;;;;;;;;;;;;;;2.96;62.71;95030.28;109089;1273;22972;-83
2023/03/08 05:29:00;;;;;;;;;;;;;;;2.93;62.77;95021.80;109063;1265;22484;-84
2023/03/08 05:31:29;;;;;;;;;;;;;;;2.94;62.58;95030.95;109098;1273;22505;-85
2023/03/08 05:33:59;;;;;;;;;;;;;;;2.93;62.72;95030.23;109095;1266;23774;-83
2023/03/08 05:36:29;;;;;;;;;;;;;;;2.91;62.92;95031.77;109051;1269;22960;-83
2023/03/08 05:38:59;;;;;;;;;;;;;;;2.90;63.00;95037.36;109056;1273;22454;-83
2023/03/08 05:41:28;;;;;;;;;;;;;;;2.95;63.08;95043.84;109076;1274;22505;-83
2023/03/08 05:44:00;;;;;;;;;;;;;;;3.01;63.15;95042.94;109039;1273;27603;-83
2023/03/08 05:46:29;;;;;;;;;;;;;;;3.13;63.03;95035.64;109087;1268;23720;-83
2023/03/08 05:48:59;;;;;;;;;;;;;;;3.40;62.90;95041.42;109098;1270;22724;-83
2023/03/08 05:51:28;;;;;;;;;;;;;;;3.94;62.73;95036.92;109045;1273;22664;-82
2023/03/08 05:53:57;;;;;;;;;;;;;;;4.36;61.88;95036.55;109037;1273;22488;-82
2023/03/08 05:56:27;;;;;;;;;;;;;;;4.51;61.66;95045.64;109067;1269;22437;-82
2023/03/08 05:58:56;;;;;;;;;;;;;;;4.99;60.92;95056.20;109108;1273;22530;-83
2023/03/08 06:01:27;;;;;;;;;;;;;;;5.37;59.71;95058.00;109091;1273;22495;-83
2023/03/08 06:03:57;;;;;;;;;;;;;;;5.36;58.82;95061.74;109046;1268;63749;-82
2023/03/08 06:06:27;;;;;;;;;;;;;;;4.94;58.66;95068.45;109065;1273;22501;-83
2023/03/08 06:08:57;;;;;;;;;;;;;;;4.60;59.03;95065.02;109042;1273;22573;-82
2023/03/08 06:11:26;;;;;;;;;;;;;;;4.37;59.39;95066.02;109148;1273;22523;-82
2023/03/08 06:13:56;;;;;;;;;;;;;;;4.17;59.90;95070.66;108991;1273;33764;-82
2023/03/08 06:16:25;;;;;;;;;;;;;;;4.01;60.19;95071.01;109075;1273;25389;-82
2023/03/08 06:18:55;;;;;;;;;;;;;;;3.85;60.38;95078.14;109003;1267;22622;-82
2023/03/08 06:21:24;;;;;;;;;;;;;;;3.77;60.46;95084.95;109060;1273;22488;-82
2023/03/08 06:23:54;;;;;;;;;;;;;;;3.71;60.74;95087.46;109074;1273;25208;-82
2023/03/08 06:26:23;;;;;;;;;;;;;;;3.61;61.02;95089.71;109085;1273;22503;-82
2023/03/08 06:28:53;;;;;;;;;;;;;;;3.53;61.29;95090.77;109100;1273;22956;-82
2023/03/08 06:31:22;;;;;;;;;;;;;;;3.52;61.66;95093.44;109076;1273;22499;-82
2023/03/08 06:33:51;;;;;;;;;;;;;;;3.56;61.76;95088.18;109070;1273;44681;-82
2023/03/08 06:36:21;;;;;;;;;;;;;;;3.58;61.77;95088.11;109057;1269;24907;-83
2023/03/08 06:38:50;;;;;;;;;;;;;;;3.63;61.72;95093.63;109051;1273;23833;-82
2023/03/08 06:41:20;;;;;;;;;;;;;;;3.69;61.91;95092.61;109087;1269;25327;-82
2023/03/08 06:43:50;;;;;;;;;;;;;;;3.77;62.08;95093.70;109089;1273;22810;-82
2023/03/08 06:46:19;;;;;;;;;;;;;;;3.89;61.88;95099.08;109110;1273;24317;-82
2023/03/08 06:48:49;;;;;;;;;;;;;;;3.97;61.72;95098.35;109098;1273;24208;-82
2023/03/08 06:51:18;;;;;;;;;;;;;;;4.15;61.87;95097.33;109055;1273;22633;-82
2023/03/08 06:53:48;;;;;;;;;;;;;;;4.39;61.21;95089.48;109066;1274;22496;-82
2023/03/08 06:56:18;;;;;;;;;;;;;;;4.70;61.30;95088.96;109078;1269;22493;-82
2023/03/08 06:58:47;;;;;;;;;;;;;;;5.80;60.43;95090.40;109067;1269;22525;-83
2023/03/08 07:01:16;;;;;;;;;;;;;;;6.45;58.50;95101.89;109105;1266;23148;-83
2023/03/08 07:03:47;;;;;;;;;;;;;;;6.50;57.07;95096.27;109080;1273;22527;-83
2023/03/08 07:06:17;;;;;;;;;;;;;;;6.15;56.77;95107.47;109107;1270;24213;-82
2023/03/08 07:08:46;;;;;;;;;;;;;;;5.91;56.32;95103.55;109057;1273;22487;-82
2023/03/08 07:11:15;;;;;;;;;;;;;;;6.05;56.83;95110.86;109080;1272;24369;-82
2023/03/08 07:13:47;;;;;;;;;;;;;;;6.73;56.49;95108.63;107788;1273;1767303;-82
2023/03/08 07:16:17;;;;;;;;;;;;;;;7.29;55.46;95099.17;109108;1273;22491;-82
2023/03/08 07:18:46;;;;;;;;;;;;;;;7.44;54.10;95097.39;109087;1273;22513;-82
2023/03/08 07:21:16;;;;;;;;;;;;;;;6.91;53.24;95107.90;109053;1269;22526;-82
2023/03/08 07:23:46;;;;;;;;;;;;;;;6.27;54.12;95124.27;109093;1274;22526;-82
2023/03/08 07:26:15;;;;;;;;;;;;;;;5.96;55.05;95131.52;109069;1271;25206;-82
2023/03/08 07:28:48;;;;;;;;;;;;;;;5.77;55.04;95133.24;109060;1273;22454;-82
2023/03/08 07:31:18;;;;;;;;;;;;;;;5.60;55.59;95137.66;109103;1273;22475;-82
2023/03/08 07:33:48;;;;;;;;;;;;;;;5.41;55.68;95134.16;109075;1270;22528;-82
2023/03/08 07:36:17;;;;;;;;;;;;;;;5.22;56.21;95138.64;109082;1273;22508;-82
2023/03/08 07:38:46;;;;;;;;;;;;;;;5.33;56.55;95136.20;109090;1269;24394;-82
2023/03/08 07:41:16;;;;;;;;;;;;;;;5.88;56.59;95131.24;109041;1274;23193;-83
2023/03/08 07:43:46;;;;;;;;;;;;;;;6.33;55.02;95140.92;109038;1274;22707;-82
2023/03/08 07:46:15;;;;;;;;;;;;;;;6.60;54.43;95148.66;109088;1273;22502;-82
2023/03/08 07:48:47;;;;;;;;;;;;;;;7.23;53.42;95143.84;109073;1274;25093;-82
2023/03/08 07:51:16;;;;;;;;;;;;;;;7.41;52.15;95154.40;109100;1273;22504;-82
2023/03/08 07:53:46;;;;;;;;;;;;;;;8.13;52.52;95155.26;109025;1268;102821;-82
2023/03/08 07:56:15;;;;;;;;;;;;;;;8.56;51.33;95164.06;109076;1273;24539;-83
2023/03/08 07:58:45;;;;;;;;;;;;;;;9.32;51.40;95164.20;109044;1268;22508;-83
2023/03/08 08:01:14;;;;;;;;;;;;;;;9.39;49.32;95165.45;109114;1266;22426;-83
2023/03/08 08:03:44;;;;;;;;;;;;;;;9.78;49.94;95169.07;109074;1273;23651;-82
2023/03/08 08:06:14;;;;;;;;;;;;;;;10.48;48.77;95172.64;109109;1270;22491;-82
2023/03/08 08:08:43;;;;;;;;;;;;;;;10.56;46.32;95173.55;109077;1272;22639;-82
2023/03/08 08:11:14;;;;;;;;;;;;;;;10.44;47.15;95178.88;109050;1273;23040;-83
2023/03/08 08:13:45;;;;;;;;;;;;;;;10.73;46.84;95187.34;109008;1269;118573;-82
2023/03/08 08:16:16;;;;;;;;;;;;;;;10.59;46.20;95189.09;109076;1273;22493;-83
2023/03/08 08:18:46;;;;;;;;;;;;;;;9.43;45.28;95184.05;109067;1267;22567;-82
2023/03/08 08:21:16;;;;;;;;;;;;;;;8.60;46.84;95178.33;109059;1269;22512;-82
2023/03/08 08:23:46;;;;;;;;;;;;;;;8.12;47.65;95185.98;109054;1269;22631;-82
2023/03/08 08:26:18;;;;;;;;;;;;;;;7.91;49.35;95192.70;109078;1273;25256;-82
2023/03/08 08:28:49;;;;;;;;;;;;;;;8.54;48.55;95188.35;109108;1274;24196;-82
2023/03/08 08:31:20;;;;;;;;;;;;;;;7.73;48.08;95183.50;109116;1273;22822;-83
2023/03/08 08:33:50;;;;;;;;;;;;;;;6.83;49.20;95193.70;109064;1267;22447;-82
2023/03/08 08:36:19;;;;;;;;;;;;;;;6.33;50.74;95195.73;109068;1273;22515;-82
2023/03/08 08:38:49;;;;;;;;;;;;;;;6.09;52.06;95192.48;109067;1273;23193;-81
2023/03/08 08:41:20;;;;;;;;;;;;;;;5.97;52.28;95185.60;109098;1269;25263;-82
2023/03/08 08:43:49;;;;;;;;;;;;;;;6.00;52.42;95188.24;109020;1274;25422;-81
2023/03/08 08:46:19;;;;;;;;;;;;;;;6.15;52.33;95185.71;109084;1271;22500;-81
2023/03/08 08:48:49;;;;;;;;;;;;;;;6.25;51.48;95172.70;109104;1273;22546;-83
2023/03/08 08:51:18;;;;;;;;;;;;;;;6.12;51.59;95178.19;109064;1274;22501;-82
2023/03/08 08:53:47;;;;;;;;;;;;;;;6.35;51.31;95188.86;109096;1269;22557;-83
2023/03/08 08:56:18;;;;;;;;;;;;;;;6.26;50.75;95182.77;109110;1271;22524;-82
2023/03/08 08:58:48;;;;;;;;;;;;;;;6.16;51.61;95183.06;109081;1262;23935;-82
2023/03/08 09:01:18;;;;;;;;;;;;;;;6.50;51.96;95184.42;109113;1266;22519;-82
2023/03/08 09:03:48;;;;;;;;;;;;;;;6.81;50.61;95172.92;109031;1269;54448;-82
2023/03/08 09:06:19;;;;;;;;;;;;;;;6.70;50.61;95178.11;109047;1266;22533;-82
2023/03/08 09:08:50;;;;;;;;;;;;;;;6.69;50.68;95178.23;109106;1274;22526;-82
2023/03/08 09:11:19;;;;;;;;;;;;;;;6.68;50.74;95181.83;109044;1273;23122;-81
2023/03/08 09:13:49;;;;;;;;;;;;;;;6.98;51.34;95170.15;109072;1269;22526;-81
2023/03/08 09:16:22;;;;;;;;;;;;;;;6.65;49.97;95175.54;109101;1269;22692;-82
2023/03/08 09:18:51;;;;;;;;;;;;;;;6.20;50.86;95175.60;109098;1273;22632;-82
2023/03/08 09:21:21;;;;;;;;;;;;;;;6.19;52.56;95179.09;109082;1269;22500;-82
2023/03/08 09:23:50;;;;;;;;;;;;;;;6.55;52.73;95178.17;108951;1273;91129;-81
2023/03/08 09:26:20;;;;;;;;;;;;;;;6.85;52.71;95178.38;109101;1274;22483;-82
2023/03/08 09:28:49;;;;;;;;;;;;;;;6.97;51.78;95175.77;109113;1273;22539;-82
2023/03/08 09:31:19;;;;;;;;;;;;;;;7.02;52.03;95175.30;109101;1269;23756;-81
2023/03/08 09:33:50;;;;;;;;;;;;;;;7.04;51.49;95169.38;109044;1269;47377;-82
2023/03/08 09:36:21;;;;;;;;;;;;;;;7.04;51.66;95176.27;109092;1268;22493;-81
2023/03/08 09:38:52;;;;;;;;;;;;;;;7.22;50.38;95172.89;109055;1269;22954;-81
2023/03/08 09:41:32;;;;;;;;;;;;;;;7.24;50.33;95169.27;109081;1274;22500;-82
2023/03/08 09:44:12;;;;;;;;;;;;;;;7.37;49.90;95167.34;109023;1273;26072;-80
2023/03/08 09:46:46;;;;;;;;;;;;;;;7.68;51.05;95166.95;109055;1271;23997;-81
2023/03/08 09:49:18;;;;;;;;;;;;;;;8.25;50.64;95160.36;109035;1274;25372;-82
2023/03/08 09:51:51;;;;;;;;;;;;;;;8.36;49.11;95160.45;109099;1273;24220;-81
2023/03/08 09:54:22;;;;;;;;;;;;;;;8.18;48.67;95170.55;109075;1269;40595;-81
2023/03/08 09:56:55;;;;;;;;;;;;;;;7.91;48.30;95173.48;109088;1266;22498;-81
2023/03/08 09:59:27;;;;;;;;;;;;;;;7.60;48.58;95178.76;109109;1274;22489;-81
2023/03/08 10:02:02;;;;;;;;;;;;;;;7.56;49.04;95177.20;109094;1270;22499;-80
2023/03/08 10:04:36;;;;;;;;;;;;;;;7.50;49.05;95176.39;109053;1266;33011;-81
2023/03/08 10:07:10;;;;;;;;;;;;;;;7.46;49.20;95174.19;109093;1274;22501;-81
2023/03/08 10:09:43;;;;;;;;;;;;;;;7.47;49.35;95171.39;109092;1266;22566;-82
2023/03/08 10:12:19;;;;;;;;;;;;;;;7.32;48.52;95170.00;109081;1271;22524;-81
2023/03/08 10:14:49;;;;;;;;;;;;;;;7.13;48.92;95182.23;109065;1273;45405;-81
2023/03/08 10:17:20;;;;;;;;;;;;;;;6.99;49.23;95171.50;109069;1273;22485;-81
2023/03/08 10:19:53;;;;;;;;;;;;;;;6.98;49.78;95172.95;109091;1271;22521;-81
2023/03/08 10:22:26;;;;;;;;;;;;;;;7.09;49.79;95165.84;109091;1274;23892;-81
2023/03/08 10:24:57;;;;;;;;;;;;;;;7.07;49.34;95155.87;109057;1272;28502;-82
2023/03/08 10:27:28;;;;;;;;;;;;;;;6.84;48.37;95152.53;109127;1273;24955;-81
2023/03/08 10:29:58;;;;;;;;;;;;;;;6.91;49.42;95160.90;109093;1274;22482;-81
2023/03/08 10:32:29;;;;;;;;;;;;;;;7.27;49.19;95156.41;109148;1273;23170;-81
2023/03/08 10:35:03;;;;;;;;;;;;;;;7.29;48.12;95157.25;109069;1274;46748;-81
2023/03/08 10:37:33;;;;;;;;;;;;;;;7.49;48.22;95149.29;109054;1273;22504;-82
2023/03/08 10:40:06;;;;;;;;;;;;;;;7.86;48.05;95141.88;109091;1266;24728;-81
2023/03/08 10:42:36;;;;;;;;;;;;;;;8.25;47.13;95142.30;109095;1274;24267;-83
2023/03/08 10:45:14;;;;;;;;;;;;;;;8.36;46.08;95141.23;109065;1272;22560;-83
2023/03/08 10:47:53;;;;;;;;;;;;;;;8.19;45.68;95143.90;109097;1274;22493;-82
2023/03/08 10:50:24;;;;;;;;;;;;;;;8.00;46.48;95130.81;109104;1269;23500;-81
2023/03/08 10:52:53;;;;;;;;;;;;;;;7.90;46.14;95136.48;109037;1270;40663;-81
2023/03/08 10:55:23;;;;;;;;;;;;;;;7.87;46.53;95140.13;109119;1272;25415;-82
2023/03/08 10:57:54;;;;;;;;;;;;;;;8.01;46.52;95133.84;109106;1273;22583;-82
2023/03/08 11:00:32;;;;;;;;;;;;;;;7.92;46.33;95135.10;109083;1273;23081;-82
2023/03/08 11:03:11;;;;;;;;;;;;;;;7.69;46.58;95139.45;109093;1274;47903;-82
2023/03/08 11:05:50;;;;;;;;;;;;;;;7.45;46.52;95133.33;109063;1274;23252;-82
2023/03/08 11:08:21;;;;;;;;;;;;;;;7.33;46.88;95137.36;109087;1272;22496;-82
2023/03/08 11:11:01;;;;;;;;;;;;;;;7.17;46.42;95135.30;109114;1274;22589;-82
2023/03/08 11:13:31;;;;;;;;;;;;;;;7.07;47.33;95141.70;109042;1272;44519;-82
2023/03/08 11:16:07;;;;;;;;;;;;;;;7.21;47.63;95134.59;109046;1272;22659;-82
2023/03/08 11:18:47;;;;;;;;;;;;;;;7.32;47.15;95133.99;109094;1272;22496;-81
2023/03/08 11:21:21;;;;;;;;;;;;;;;7.33;46.48;95127.19;109067;1273;22492;-82
2023/03/08 11:23:57;;;;;;;;;;;;;;;7.25;46.45;95124.66;109069;1272;51774;-82
2023/03/08 11:26:30;;;;;;;;;;;;;;;7.25;46.60;95130.57;109071;1270;22514;-82
2023/03/08 11:29:16;;;;;;;;;;;;;;;7.31;46.11;95141.14;109084;1274;22495;-82
2023/03/08 11:31:53;;;;;;;;;;;;;;;7.27;45.91;95128.63;109101;1271;22588;-82
2023/03/08 11:34:34;;;;;;;;;;;;;;;7.21;46.12;95132.11;109046;1274;59384;-81
2023/03/08 11:37:11;;;;;;;;;;;;;;;7.30;45.66;95126.03;109098;1270;22490;-82
2023/03/08 11:39:45;;;;;;;;;;;;;;;7.55;46.30;95123.91;109063;1273;22495;-82
2023/03/08 11:42:20;;;;;;;;;;;;;;;7.82;45.53;95108.00;109102;1273;22499;-83
2023/03/08 11:45:02;;;;;;;;;;;;;;;7.94;45.07;95125.04;109010;1272;44585;-83
2023/03/08 11:47:39;;;;;;;;;;;;;;;7.89;44.45;95116.81;109134;1273;23753;-82
2023/03/08 11:50:14;;;;;;;;;;;;;;;7.85;44.79;95106.81;109056;1266;22500;-82
2023/03/08 11:52:49;;;;;;;;;;;;;;;7.89;44.30;95100.61;109050;1266;58334;-82
2023/03/08 11:55:27;;;;;;;;;;;;;;;7.74;44.06;95096.98;109068;1274;22554;-82
2023/03/08 11:58:01;;;;;;;;;;;;;;;7.76;44.52;95098.83;109104;1273;22508;-82
2023/03/08 12:00:34;;;;;;;;;;;;;;;8.00;44.78;95092.66;109087;1274;22489;-82
2023/03/08 12:03:09;;;;;;;;;;;;;;;8.30;44.88;95070.33;109052;1274;71418;-82
2023/03/08 12:05:42;;;;;;;;;;;;;;;8.36;43.26;95072.20;109099;1274;22542;-83
2023/03/08 12:08:15;;;;;;;;;;;;;;;8.32;44.35;95068.44;109084;1274;22830;-83
2023/03/08 12:10:48;;;;;;;;;;;;;;;8.46;44.40;95068.23;109103;1274;22659;-83
2023/03/08 12:13:21;;;;;;;;;;;;;;;8.62;43.78;95064.96;109061;1274;46994;-82
2023/03/08 12:15:53;;;;;;;;;;;;;;;8.82;44.15;95065.41;109088;1274;22524;-82
2023/03/08 12:18:28;;;;;;;;;;;;;;;8.98;43.91;95064.61;109104;1274;25255;-82
2023/03/08 12:21:01;;;;;;;;;;;;;;;9.16;43.33;95063.11;109133;1273;24232;-82
2023/03/08 12:23:35;;;;;;;;;;;;;;;9.27;43.20;95056.67;109050;1272;60213;-82
2023/03/08 12:26:07;;;;;;;;;;;;;;;9.38;43.00;95054.92;109143;1272;22517;-81
2023/03/08 12:28:41;;;;;;;;;;;;;;;9.39;42.99;95053.83;109069;1273;22546;-81
2023/03/08 12:31:24;;;;;;;;;;;;;;;9.38;42.89;95051.56;109081;1273;22503;-81
2023/03/08 12:33:54;;;;;;;;;;;;;;;9.24;42.16;95053.75;109059;1273;50435;-81
2023/03/08 12:36:35;;;;;;;;;;;;;;;9.14;42.24;95056.45;109061;1273;22496;-81
2023/03/08 12:39:08;;;;;;;;;;;;;;;9.19;41.28;95047.06;109108;1272;22498;-81
2023/03/08 12:41:37;;;;;;;;;;;;;;;9.00;40.99;95033.95;109104;1266;23719;-81
2023/03/08 12:44:22;;;;;;;;;;;;;;;8.95;41.79;95039.90;109013;1269;52636;-82
2023/03/08 12:46:52;;;;;;;;;;;;;;;9.03;40.58;95028.36;109066;1274;22461;-81
2023/03/08 12:49:26;;;;;;;;;;;;;;;8.87;40.56;95029.95;109086;1274;22434;-81
2023/03/08 12:52:04;;;;;;;;;;;;;;;8.79;40.68;95033.65;109055;1274;22582;-81
2023/03/08 12:54:34;;;;;;;;;;;;;;;8.90;40.67;95029.27;109058;1274;66231;-81
2023/03/08 12:57:14;;;;;;;;;;;;;;;9.03;41.31;95028.27;109109;1266;22987;-81
2023/03/08 12:59:44;;;;;;;;;;;;;;;9.22;41.00;95036.13;109096;1274;23993;-81
2023/03/08 13:02:25;;;;;;;;;;;;;;;9.23;39.86;95028.07;109119;1274;22840;-81
2023/03/08 13:05:04;;;;;;;;;;;;;;;9.05;39.65;95034.27;109081;1273;35347;-81